createdAt,value
2018-08-11T00:01:24.177Z,14.60
2018-08-11T00:03:52.412Z,14.60
2018-08-11T00:06:20.732Z,14.50
2018-08-11T00:08:48.674Z,14.50
2018-08-11T00:11:17.009Z,14.60
2018-08-11T00:13:44.961Z,14.70
2018-08-11T00:16:19.870Z,14.70
2018-08-11T00:18:48.517Z,14.60
2018-08-11T00:21:17.309Z,14.50
2018-08-11T00:23:45.689Z,14.60
2018-08-11T00:26:14.993Z,14.50
2018-08-11T00:28:43.350Z,14.40
2018-08-11T00:31:11.540Z,14.40
2018-08-11T00:33:40.253Z,14.40
2018-08-11T00:36:08.549Z,14.30
2018-08-11T00:38:36.840Z,14.30
2018-08-11T00:41:05.133Z,14.30
2018-08-11T00:43:33.402Z,14.30
2018-08-11T00:46:01.712Z,14.30
2018-08-11T00:48:29.633Z,14.20
2018-08-11T00:50:58.198Z,14.30
2018-08-11T00:53:26.505Z,14.20
2018-08-11T00:55:55.590Z,14.20
2018-08-11T00:58:23.779Z,14.10
2018-08-11T01:00:52.084Z,14.10
2018-08-11T01:03:20.998Z,14.00
2018-08-11T01:05:49.984Z,14.10
2018-08-11T01:08:18.645Z,14.00
2018-08-11T01:10:47.589Z,14.00
2018-08-11T01:13:16.396Z,13.90
2018-08-11T01:15:44.716Z,14.00
2018-08-11T01:18:13.116Z,14.00
2018-08-11T01:20:40.996Z,14.00
2018-08-11T01:23:09.320Z,14.10
2018-08-11T01:25:38.436Z,14.00
2018-08-11T01:28:06.812Z,13.80
2018-08-11T01:30:36.059Z,13.80
2018-08-11T01:33:05.637Z,13.80
2018-08-11T01:35:33.937Z,13.80
2018-08-11T01:38:02.776Z,13.80
2018-08-11T01:40:32.277Z,13.80
2018-08-11T01:43:06.692Z,13.90
2018-08-11T01:45:34.893Z,13.90
2018-08-11T01:48:02.702Z,13.80
2018-08-11T01:50:30.629Z,13.80
2018-08-11T01:52:59.001Z,13.80
2018-08-11T01:55:27.797Z,13.70
2018-08-11T01:58:00.138Z,13.80
2018-08-11T02:00:28.238Z,13.80
2018-08-11T02:02:56.482Z,13.80
2018-08-11T02:05:25.203Z,13.70
2018-08-11T02:07:53.550Z,13.70
2018-08-11T02:10:22.117Z,13.70
2018-08-11T02:12:51.727Z,13.70
2018-08-11T02:15:19.949Z,13.70
2018-08-11T02:17:48.281Z,13.60
2018-08-11T02:20:19.560Z,13.60
2018-08-11T02:22:49.893Z,13.60
2018-08-11T02:25:18.069Z,13.60
2018-08-11T02:27:46.345Z,13.60
2018-08-11T02:30:15.753Z,13.60
2018-08-11T02:32:44.090Z,13.60
2018-08-11T02:35:13.317Z,13.60
2018-08-11T02:37:42.203Z,13.60
2018-08-11T02:40:11.935Z,13.60
2018-08-11T02:42:39.943Z,13.60
2018-08-11T02:45:09.382Z,13.60
2018-08-11T02:47:37.571Z,13.50
2018-08-11T02:50:07.748Z,13.50
2018-08-11T02:52:36.824Z,13.50
2018-08-11T02:55:05.569Z,13.50
2018-08-11T02:57:33.877Z,13.50
2018-08-11T03:00:02.007Z,13.50
2018-08-11T03:02:30.902Z,13.60
2018-08-11T03:04:58.741Z,13.60
2018-08-11T03:07:27.473Z,13.60
2018-08-11T03:09:55.705Z,13.60
2018-08-11T03:12:23.628Z,13.70
2018-08-11T03:14:52.216Z,13.80
2018-08-11T03:17:21.285Z,13.70
2018-08-11T03:19:49.212Z,13.70
2018-08-11T03:22:17.428Z,13.70
2018-08-11T03:24:46.453Z,13.50
2018-08-11T03:27:14.757Z,13.50
2018-08-11T03:29:43.084Z,13.60
2018-08-11T03:32:11.268Z,13.50
2018-08-11T03:34:39.883Z,13.50
2018-08-11T03:37:08.437Z,13.40
2018-08-11T03:39:36.788Z,13.30
2018-08-11T03:42:06.460Z,13.40
2018-08-11T03:44:34.521Z,13.40
2018-08-11T03:47:02.861Z,13.30
2018-08-11T03:49:31.848Z,13.30
2018-08-11T03:52:01.645Z,13.30
2018-08-11T03:54:30.089Z,13.50
2018-08-11T03:56:58.377Z,13.50
2018-08-11T03:59:26.954Z,13.50
2018-08-11T04:01:55.288Z,13.50
2018-08-11T04:04:23.868Z,13.50
2018-08-11T04:06:52.654Z,13.60
2018-08-11T04:09:21.444Z,13.50
2018-08-11T04:11:49.420Z,13.50
2018-08-11T04:14:18.137Z,13.40
2018-08-11T04:16:46.513Z,13.40
2018-08-11T04:19:14.430Z,13.30
2018-08-11T04:21:42.728Z,13.40
2018-08-11T04:24:12.484Z,13.40
2018-08-11T04:26:41.221Z,13.50
2018-08-11T04:29:09.652Z,13.30
2018-08-11T04:31:38.589Z,13.30
2018-08-11T04:34:06.973Z,13.30
2018-08-11T04:36:36.165Z,13.40
2018-08-11T04:39:06.760Z,13.40
2018-08-11T04:41:35.414Z,13.50
2018-08-11T04:44:03.664Z,13.40
2018-08-11T04:46:32.232Z,13.40
2018-08-11T04:49:01.338Z,13.50
2018-08-11T04:51:30.237Z,13.50
2018-08-11T04:53:58.625Z,13.50
2018-08-11T04:56:27.808Z,13.50
2018-08-11T04:58:56.593Z,13.50
2018-08-11T05:01:25.769Z,13.60
2018-08-11T05:03:54.092Z,13.70
2018-08-11T05:06:23.113Z,13.80
2018-08-11T05:08:52.270Z,13.80
2018-08-11T05:11:20.713Z,13.80
2018-08-11T05:13:49.537Z,13.80
2018-08-11T05:16:17.466Z,13.90
2018-08-11T05:18:46.889Z,14.00
2018-08-11T05:21:16.254Z,14.00
2018-08-11T05:23:44.621Z,14.10
2018-08-11T05:26:12.868Z,14.20
2018-08-11T05:28:41.657Z,14.20
2018-08-11T05:31:09.868Z,14.30
2018-08-11T05:33:37.805Z,14.40
2018-08-11T05:36:06.281Z,14.40
2018-08-11T05:38:35.005Z,14.40
2018-08-11T05:41:04.683Z,14.40
2018-08-11T05:43:34.282Z,14.50
2018-08-11T05:46:03.041Z,14.70
2018-08-11T05:48:31.759Z,14.80
2018-08-11T05:51:01.787Z,14.80
2018-08-11T05:53:31.328Z,14.80
2018-08-11T05:56:01.310Z,14.80
2018-08-11T05:58:30.461Z,14.90
2018-08-11T06:00:58.696Z,15.00
2018-08-11T06:03:27.444Z,15.20
2018-08-11T06:05:56.133Z,15.40
2018-08-11T06:08:25.444Z,15.60
2018-08-11T06:10:53.933Z,15.50
2018-08-11T06:13:23.845Z,15.60
2018-08-11T06:15:52.762Z,15.60
2018-08-11T06:18:21.584Z,15.70
2018-08-11T06:20:51.716Z,15.90
2018-08-11T06:23:20.429Z,16.10
2018-08-11T06:25:49.005Z,16.50
2018-08-11T06:28:16.950Z,16.80
2018-08-11T06:30:45.253Z,17.00
2018-08-11T06:33:13.529Z,17.30
2018-08-11T06:35:42.425Z,17.50
2018-08-11T06:38:10.724Z,17.50
2018-08-11T06:40:40.240Z,17.60
2018-08-11T06:43:08.898Z,17.60
2018-08-11T06:45:37.621Z,17.70
2018-08-11T06:48:06.656Z,17.90
2018-08-11T06:50:34.934Z,18.00
2018-08-11T06:53:04.654Z,18.10
2018-08-11T06:55:32.968Z,18.10
2018-08-11T06:58:04.135Z,18.10
2018-08-11T07:00:33.273Z,18.20
2018-08-11T07:03:01.833Z,18.10
2018-08-11T07:05:29.738Z,18.00
2018-08-11T07:07:57.727Z,18.10
2018-08-11T07:10:26.547Z,17.90
2018-08-11T07:12:58.510Z,17.90
2018-08-11T07:15:26.885Z,17.90
2018-08-11T07:17:54.852Z,18.10
2018-08-11T07:20:24.415Z,18.10
2018-08-11T07:22:52.816Z,18.20
2018-08-11T07:25:21.935Z,18.10
2018-08-11T07:27:50.353Z,18.20
2018-08-11T07:30:19.678Z,18.30
2018-08-11T07:32:48.751Z,18.40
2018-08-11T07:35:18.720Z,18.60
2018-08-11T07:37:47.978Z,18.60
2018-08-11T07:40:16.460Z,18.80
2018-08-11T07:42:45.234Z,18.90
2018-08-11T07:45:14.289Z,19.10
2018-08-11T07:47:43.133Z,19.30
2018-08-11T07:50:11.467Z,19.50
2018-08-11T07:52:40.201Z,19.40
2018-08-11T07:55:08.926Z,19.30
2018-08-11T07:57:37.577Z,19.20
2018-08-11T08:00:07.608Z,19.30
2018-08-11T08:02:35.812Z,19.40
2018-08-11T08:05:04.328Z,19.70
2018-08-11T08:07:32.776Z,19.90
2018-08-11T08:10:01.153Z,19.70
2018-08-11T08:12:29.570Z,19.80
2018-08-11T08:14:57.905Z,20.00
2018-08-11T08:17:27.661Z,20.20
2018-08-11T08:19:57.212Z,20.10
2018-08-11T08:22:26.137Z,20.00
2018-08-11T08:24:54.441Z,19.80
2018-08-11T08:27:23.866Z,19.70
2018-08-11T08:29:52.901Z,19.80
2018-08-11T08:32:21.309Z,19.80
2018-08-11T08:34:49.584Z,20.00
2018-08-11T08:37:17.969Z,20.40
2018-08-11T08:39:46.232Z,20.80
2018-08-11T08:42:14.496Z,21.00
2018-08-11T08:44:42.433Z,21.20
2018-08-11T08:47:11.174Z,21.30
2018-08-11T08:49:39.153Z,21.20
2018-08-11T08:52:13.009Z,21.20
2018-08-11T08:54:44.245Z,21.20
2018-08-11T08:57:12.705Z,21.40
2018-08-11T08:59:41.097Z,21.60
2018-08-11T09:02:09.901Z,21.70
2018-08-11T09:04:38.305Z,21.30
2018-08-11T09:07:06.681Z,21.20
2018-08-11T09:09:35.661Z,21.10
2018-08-11T09:12:04.354Z,21.10
2018-08-11T09:14:32.224Z,21.30
2018-08-11T09:17:00.991Z,21.90
2018-08-11T09:19:29.834Z,22.30
2018-08-11T09:21:58.116Z,22.50
2018-08-11T09:24:26.689Z,22.50
2018-08-11T09:26:54.938Z,22.60
2018-08-11T09:29:23.509Z,22.80
2018-08-11T09:31:51.760Z,22.80
2018-08-11T09:34:19.688Z,22.50
2018-08-11T09:36:47.964Z,22.50
2018-08-11T09:39:17.084Z,22.40
2018-08-11T09:41:45.409Z,22.40
2018-08-11T09:44:13.690Z,22.20
2018-08-11T09:46:42.821Z,22.40
2018-08-11T09:49:10.788Z,22.30
2018-08-11T09:51:38.597Z,22.60
2018-08-11T09:54:07.013Z,23.00
2018-08-11T09:56:34.881Z,23.20
2018-08-11T09:59:02.931Z,23.10
2018-08-11T10:01:36.958Z,23.00
2018-08-11T10:04:06.321Z,23.10
2018-08-11T10:06:34.164Z,22.80
2018-08-11T10:09:02.828Z,22.40
2018-08-11T10:11:31.704Z,22.40
2018-08-11T10:14:00.278Z,22.70
2018-08-11T10:16:28.663Z,22.80
2018-08-11T10:18:56.934Z,23.10
2018-08-11T10:21:25.522Z,23.10
2018-08-11T10:23:54.311Z,23.10
2018-08-11T10:26:23.100Z,23.20
2018-08-11T10:28:51.481Z,23.50
2018-08-11T10:31:20.262Z,23.20
2018-08-11T10:33:48.549Z,23.20
2018-08-11T10:36:17.998Z,23.50
2018-08-11T10:38:46.232Z,24.00
2018-08-11T10:41:15.445Z,23.90
2018-08-11T10:43:43.709Z,23.70
2018-08-11T10:46:12.394Z,23.50
2018-08-11T10:48:41.593Z,23.80
2018-08-11T10:51:09.488Z,24.20
2018-08-11T10:53:38.136Z,24.40
2018-08-11T10:56:06.455Z,24.50
2018-08-11T10:58:34.784Z,24.10
2018-08-11T11:01:02.727Z,24.00
2018-08-11T11:03:31.069Z,24.10
2018-08-11T11:05:59.278Z,24.00
2018-08-11T11:08:28.361Z,24.10
2018-08-11T11:10:57.817Z,24.30
2018-08-11T11:13:26.910Z,24.30
2018-08-11T11:15:55.734Z,24.00
2018-08-11T11:18:24.081Z,23.70
2018-08-11T11:20:52.521Z,23.60
2018-08-11T11:23:20.873Z,23.60
2018-08-11T11:25:49.125Z,23.40
2018-08-11T11:28:17.640Z,23.80
2018-08-11T11:30:46.876Z,24.30
2018-08-11T11:33:15.889Z,24.70
2018-08-11T11:35:45.089Z,24.70
2018-08-11T11:38:13.777Z,24.90
2018-08-11T11:40:42.150Z,25.10
2018-08-11T11:43:10.101Z,24.90
2018-08-11T11:45:38.701Z,24.80
2018-08-11T11:48:07.077Z,24.70
2018-08-11T11:50:35.352Z,24.40
2018-08-11T11:53:03.636Z,24.30
2018-08-11T11:55:32.013Z,24.30
2018-08-11T11:58:01.736Z,24.50
2018-08-11T12:00:29.678Z,24.60
2018-08-11T12:02:58.182Z,24.60
2018-08-11T12:05:26.452Z,24.50
2018-08-11T12:07:54.297Z,24.40
2018-08-11T12:10:23.008Z,24.60
2018-08-11T12:12:51.389Z,24.90
2018-08-11T12:15:19.325Z,24.60
2018-08-11T12:17:48.048Z,24.70
2018-08-11T12:20:17.137Z,24.80
2018-08-11T12:22:45.478Z,24.60
2018-08-11T12:25:14.200Z,24.30
2018-08-11T12:27:42.997Z,24.40
2018-08-11T12:30:11.297Z,24.70
2018-08-11T12:32:40.273Z,24.90
2018-08-11T12:35:09.396Z,25.10
2018-08-11T12:37:37.753Z,24.90
2018-08-11T12:40:05.841Z,25.10
2018-08-11T12:42:34.983Z,25.60
2018-08-11T12:45:08.980Z,25.90
2018-08-11T12:47:40.584Z,26.20
2018-08-11T12:50:15.627Z,25.60
2018-08-11T12:52:44.277Z,25.10
2018-08-11T12:55:13.177Z,25.80
2018-08-11T12:57:41.620Z,26.80
2018-08-11T13:00:10.132Z,26.90
2018-08-11T13:02:38.715Z,27.00
2018-08-11T13:05:07.117Z,27.30
2018-08-11T13:07:35.045Z,27.90
2018-08-11T13:10:03.336Z,28.50
2018-08-11T13:12:32.008Z,28.60
2018-08-11T13:15:00.058Z,28.60
2018-08-11T13:17:29.181Z,28.50
2018-08-11T13:19:57.548Z,28.50
2018-08-11T13:22:26.244Z,28.80
2018-08-11T13:24:54.157Z,29.00
2018-08-11T13:27:22.076Z,28.30
2018-08-11T13:29:49.956Z,27.30
2018-08-11T13:32:18.255Z,27.60
2018-08-11T13:34:47.228Z,28.40
2018-08-11T13:37:15.995Z,29.20
2018-08-11T13:39:47.903Z,30.70
2018-08-11T13:42:16.664Z,31.10
2018-08-11T13:44:44.944Z,30.90
2018-08-11T13:47:13.324Z,31.30
2018-08-11T13:49:42.193Z,32.10
2018-08-11T13:52:10.067Z,32.70
2018-08-11T13:54:39.309Z,32.30
2018-08-11T13:57:07.224Z,31.50
2018-08-11T13:59:35.585Z,30.40
2018-08-11T14:02:04.268Z,30.10
2018-08-11T14:04:32.972Z,30.50
2018-08-11T14:07:01.313Z,30.70
2018-08-11T14:09:30.013Z,30.90
2018-08-11T14:11:58.232Z,31.60
2018-08-11T14:14:26.736Z,32.30
2018-08-11T14:16:55.112Z,32.10
2018-08-11T14:19:23.830Z,32.20
2018-08-11T14:21:51.753Z,33.10
2018-08-11T14:24:19.700Z,34.20
2018-08-11T14:26:48.105Z,35.00
2018-08-11T14:29:16.373Z,34.60
2018-08-11T14:31:44.709Z,34.20
2018-08-11T14:34:13.037Z,33.40
2018-08-11T14:36:41.816Z,32.60
2018-08-11T14:39:10.809Z,31.40
2018-08-11T14:41:39.129Z,30.90
2018-08-11T14:44:08.467Z,30.90
2018-08-11T14:46:37.289Z,30.50
2018-08-11T14:49:05.823Z,30.50
2018-08-11T14:51:34.300Z,31.20
2018-08-11T14:54:02.725Z,31.40
2018-08-11T14:56:31.025Z,30.90
2018-08-11T14:58:59.376Z,29.70
2018-08-11T15:01:28.061Z,29.90
2018-08-11T15:03:56.258Z,29.70
2018-08-11T15:06:24.625Z,28.90
2018-08-11T15:08:53.561Z,27.90
2018-08-11T15:11:22.718Z,27.60
2018-08-11T15:13:51.705Z,29.10
2018-08-11T15:16:20.102Z,28.90
2018-08-11T15:18:48.773Z,28.10
2018-08-11T15:21:17.460Z,27.80
2018-08-11T15:23:45.460Z,28.30
2018-08-11T15:26:13.797Z,29.30
2018-08-11T15:28:42.181Z,30.00
2018-08-11T15:31:10.453Z,30.90
2018-08-11T15:33:38.732Z,31.00
2018-08-11T15:36:13.685Z,31.50
2018-08-11T15:38:41.964Z,32.20
2018-08-11T15:41:10.095Z,32.70
2018-08-11T15:43:38.856Z,33.40
2018-08-11T15:46:08.156Z,33.30
2018-08-11T15:48:36.019Z,31.90
2018-08-11T15:51:04.414Z,30.40
2018-08-11T15:53:32.797Z,29.30
2018-08-11T15:56:00.798Z,28.70
2018-08-11T15:58:28.805Z,28.20
2018-08-11T16:00:56.988Z,27.70
2018-08-11T16:03:25.642Z,26.90
2018-08-11T16:05:54.360Z,26.50
2018-08-11T16:08:22.848Z,26.10
2018-08-11T16:10:51.121Z,25.80
2018-08-11T16:13:19.760Z,26.10
2018-08-11T16:15:48.279Z,26.80
2018-08-11T16:18:16.207Z,26.80
2018-08-11T16:20:44.747Z,26.70
2018-08-11T16:23:14.086Z,26.50
2018-08-11T16:25:41.962Z,25.50
2018-08-11T16:28:09.866Z,27.50
2018-08-11T16:30:39.622Z,28.60
2018-08-11T16:33:08.377Z,29.50
2018-08-11T16:35:36.835Z,31.00
2018-08-11T16:38:05.497Z,31.20
2018-08-11T16:40:33.924Z,30.50
2018-08-11T16:43:02.115Z,30.50
2018-08-11T16:45:30.432Z,30.60
2018-08-11T16:47:58.789Z,31.50
2018-08-11T16:50:27.121Z,31.60
2018-08-11T16:52:55.405Z,32.10
2018-08-11T16:55:24.217Z,32.20
2018-08-11T16:57:52.093Z,32.70
2018-08-11T17:00:20.064Z,33.90
2018-08-11T17:02:48.029Z,34.70
2018-08-11T17:05:16.784Z,33.80
2018-08-11T17:07:44.678Z,33.70
2018-08-11T17:10:13.452Z,34.50
2018-08-11T17:12:41.824Z,34.10
2018-08-11T17:15:11.226Z,33.60
2018-08-11T17:17:39.733Z,33.30
2018-08-11T17:20:08.397Z,33.70
2018-08-11T17:22:36.629Z,33.80
2018-08-11T17:25:05.251Z,33.40
2018-08-11T17:27:34.061Z,33.50
2018-08-11T17:30:03.232Z,33.10
2018-08-11T17:32:31.156Z,33.00
2018-08-11T17:34:59.104Z,32.90
2018-08-11T17:37:27.416Z,31.90
2018-08-11T17:39:56.136Z,30.70
2018-08-11T17:42:24.400Z,29.60
2018-08-11T17:44:52.348Z,28.50
2018-08-11T17:47:21.122Z,27.70
2018-08-11T17:49:49.877Z,27.10
2018-08-11T17:52:19.337Z,26.50
2018-08-11T17:54:48.096Z,26.00
2018-08-11T17:57:16.292Z,25.20
2018-08-11T17:59:45.017Z,24.50
2018-08-11T18:02:13.397Z,23.90
2018-08-11T18:04:42.052Z,23.20
2018-08-11T18:07:10.352Z,22.60
2018-08-11T18:09:39.440Z,22.30
2018-08-11T18:12:08.285Z,22.00
2018-08-11T18:14:36.709Z,21.50
2018-08-11T18:17:05.410Z,21.00
2018-08-11T18:19:36.089Z,20.50
2018-08-11T18:22:04.313Z,20.10
2018-08-11T18:24:33.220Z,19.90
2018-08-11T18:27:02.605Z,19.80
2018-08-11T18:29:30.888Z,19.60
2018-08-11T18:31:59.410Z,19.40
2018-08-11T18:34:27.407Z,19.30
2018-08-11T18:36:56.132Z,19.00
2018-08-11T18:39:24.073Z,18.90
2018-08-11T18:41:52.887Z,18.60
2018-08-11T18:44:21.799Z,18.40
2018-08-11T18:46:51.386Z,18.20
2018-08-11T18:49:20.463Z,18.00
2018-08-11T18:51:48.982Z,17.80
2018-08-11T18:54:16.917Z,17.60
2018-08-11T18:56:45.070Z,17.50
2018-08-11T18:59:13.011Z,17.50
2018-08-11T19:01:41.257Z,17.40
2018-08-11T19:04:10.642Z,17.20
2018-08-11T19:06:38.996Z,17.30
2018-08-11T19:09:09.169Z,17.10
2018-08-11T19:11:37.226Z,17.00
2018-08-11T19:14:06.309Z,16.80
2018-08-11T19:16:34.713Z,16.70
2018-08-11T19:19:04.401Z,16.60
2018-08-11T19:21:32.829Z,16.50
2018-08-11T19:24:01.177Z,16.50
2018-08-11T19:26:31.590Z,16.40
2018-08-11T19:29:00.328Z,16.40
2018-08-11T19:31:28.257Z,16.30
2018-08-11T19:33:56.909Z,16.30
2018-08-11T19:36:26.389Z,16.20
2018-08-11T19:38:54.679Z,16.10
2018-08-11T19:41:23.408Z,16.00
2018-08-11T19:43:52.386Z,16.00
2018-08-11T19:46:21.231Z,16.10
2018-08-11T19:48:50.298Z,15.90
2018-08-11T19:51:19.854Z,15.80
2018-08-11T19:53:48.153Z,15.80
2018-08-11T19:56:16.840Z,15.80
2018-08-11T19:58:45.237Z,15.70
2018-08-11T20:01:14.014Z,15.60
2018-08-11T20:03:42.285Z,15.60
2018-08-11T20:06:11.122Z,15.60
2018-08-11T20:08:39.720Z,15.50
2018-08-11T20:11:08.365Z,15.50
2018-08-11T20:13:37.230Z,15.40
2018-08-11T20:16:05.620Z,15.40
2018-08-11T20:18:34.108Z,15.40
2018-08-11T20:21:02.464Z,15.30
2018-08-11T20:23:31.262Z,15.30
2018-08-11T20:25:59.182Z,15.30
2018-08-11T20:28:27.468Z,15.30
2018-08-11T20:30:57.404Z,15.30
2018-08-11T20:33:26.084Z,15.30
2018-08-11T20:35:54.890Z,15.40
2018-08-11T20:38:22.777Z,15.40
2018-08-11T20:40:51.887Z,15.50
2018-08-11T20:43:20.792Z,15.50
2018-08-11T20:45:50.194Z,15.60
2018-08-11T20:48:18.489Z,15.50
2018-08-11T20:50:47.940Z,15.50
2018-08-11T20:53:16.221Z,15.50
2018-08-11T20:55:44.701Z,15.50
2018-08-11T20:58:14.141Z,15.50
2018-08-11T21:00:43.266Z,15.50
2018-08-11T21:03:12.818Z,15.40
2018-08-11T21:05:42.210Z,15.40
2018-08-11T21:08:12.229Z,15.40
2018-08-11T21:10:41.008Z,15.40
2018-08-11T21:13:13.172Z,15.40
2018-08-11T21:15:42.397Z,15.40
2018-08-11T21:18:11.153Z,15.30
2018-08-11T21:20:41.520Z,15.30
2018-08-11T21:23:10.269Z,15.30
2018-08-11T21:25:38.174Z,15.30
2018-08-11T21:28:12.157Z,15.30
2018-08-11T21:30:41.180Z,15.30
2018-08-11T21:33:10.196Z,15.30
2018-08-11T21:35:38.419Z,15.10
2018-08-11T21:38:07.018Z,15.00
2018-08-11T21:40:35.387Z,14.90
2018-08-11T21:43:04.669Z,15.00
2018-08-11T21:45:33.065Z,14.90
2018-08-11T21:48:01.457Z,14.90
2018-08-11T21:50:30.119Z,14.90
2018-08-11T21:52:58.263Z,14.90
2018-08-11T21:55:26.241Z,14.70
2018-08-11T21:57:54.158Z,14.60
2018-08-11T22:00:34.077Z,14.70
2018-08-11T22:03:02.073Z,14.70
2018-08-11T22:05:30.426Z,14.70
2018-08-11T22:07:59.936Z,14.70
2018-08-11T22:10:28.131Z,14.70
2018-08-11T22:12:57.010Z,14.60
2018-08-11T22:15:26.157Z,14.60
2018-08-11T22:17:55.257Z,14.60
2018-08-11T22:20:24.294Z,14.60
2018-08-11T22:22:52.229Z,14.60
2018-08-11T22:25:20.407Z,14.60
2018-08-11T22:27:49.076Z,14.50
2018-08-11T22:30:17.353Z,14.40
2018-08-11T22:32:45.272Z,14.40
2018-08-11T22:35:14.043Z,14.40
2018-08-11T22:37:42.941Z,14.40
2018-08-11T22:40:11.493Z,14.40
2018-08-11T22:42:39.501Z,14.40
2018-08-11T22:45:09.111Z,14.30
2018-08-11T22:47:38.276Z,14.30
2018-08-11T22:50:09.682Z,14.30
2018-08-11T22:52:39.165Z,14.30
2018-08-11T22:55:07.417Z,14.30
2018-08-11T22:57:36.126Z,14.30
2018-08-11T23:00:15.713Z,14.30
2018-08-11T23:02:44.544Z,14.30
2018-08-11T23:05:13.229Z,14.20
2018-08-11T23:07:41.704Z,14.20
2018-08-11T23:10:11.826Z,14.20
2018-08-11T23:12:41.409Z,14.20
2018-08-11T23:15:11.886Z,14.20
2018-08-11T23:17:41.781Z,14.20
2018-08-11T23:20:09.669Z,14.20
2018-08-11T23:22:39.357Z,14.20
2018-08-11T23:25:07.961Z,14.20
2018-08-11T23:27:36.098Z,14.20
2018-08-11T23:30:05.489Z,14.20
2018-08-11T23:32:33.901Z,14.10
2018-08-11T23:35:02.613Z,14.10
2018-08-11T23:37:31.024Z,14.10
2018-08-11T23:40:00.121Z,14.10
2018-08-11T23:42:28.788Z,14.10
2018-08-11T23:44:57.597Z,14.10
2018-08-11T23:47:25.957Z,14.10
2018-08-11T23:49:55.517Z,14.10
2018-08-11T23:52:24.262Z,14.20
2018-08-11T23:54:52.602Z,14.20
2018-08-11T23:57:21.676Z,14.20
2018-08-11T23:59:50.460Z,14.20
